Johnstonville, California
Current Conditions -  °F | °C
As of 4:55 AM on Saturday 20 Dec 2014 (Local Time) from KAAT Reporting Station
Light Rain Light Rain  
Wind Chill: 31°   Ceiling: 3000
Heat Index: 38°   Visibility: 10mi
Dew Point: 35°   Wind: 10mph
Humidity: 89%   Direction: 180°S
Pressure: 30.02"   Gusts: NA
Location:  40.5172°N, 120.68°W
Report Text: KAAT 201255Z AUTO 18009KT 10SM -RA SCT025 OVC030 03/02 A3002 RMK AO2 SLP168 P0001 T00330017
Loading
Personal Weather Stations






























Interactive Weather Map New forecast layout! Learn more

10-Day Weather Forecast

Advertisements
Track Severe Weather on mobile